Time;durP1;ratioP1;P1;durP2;ratioP2;P2;SDS_P1;SDS_P2;PMS_P1;PMS_P2;Temp;Humidity;BMP_temperature;BMP_pressure;BME280_temperature;BME280_humidity;BME280_pressure;Samples;Min_cycle;Max_cycle;Signal;HPM_P1;HPM_P2
2022/12/14 00:01:13;;;;;;;30.48;12.63;;;-5.70;99.90;;;;;;4174706;28;20584;-77
2022/12/14 00:03:16;;;;;;;24.08;11.30;;;-5.20;99.90;;;;;;4175113;28;20211;-77
2022/12/14 00:05:18;;;;;;;26.52;11.23;;;-5.80;99.90;;;;;;4170446;28;20232;-78
2022/12/14 00:07:20;;;;;;;28.58;11.80;;;-5.70;99.90;;;;;;4170272;28;20695;-77
2022/12/14 00:09:22;;;;;;;26.67;12.15;;;-5.70;99.90;;;;;;4171170;28;20212;-77
2022/12/14 00:11:27;;;;;;;28.98;12.65;;;-5.70;99.90;;;;;;4177307;28;20220;-76
2022/12/14 00:13:29;;;;;;;29.00;11.80;;;-5.70;99.90;;;;;;4170700;28;20668;-77
2022/12/14 00:15:31;;;;;;;28.60;11.90;;;-5.70;99.90;;;;;;4175831;28;20269;-77
2022/12/14 00:17:33;;;;;;;27.08;11.23;;;-5.70;99.90;;;;;;4172185;28;20230;-77
2022/12/14 00:19:35;;;;;;;25.52;11.82;;;-5.70;99.90;;;;;;4167550;28;20603;-77
2022/12/14 00:21:37;;;;;;;28.75;11.80;;;-5.70;99.90;;;;;;4172399;28;20229;-77
2022/12/14 00:23:42;;;;;;;25.30;11.02;;;-5.70;99.90;;;;;;4181870;28;20609;-77
2022/12/14 00:25:44;;;;;;;24.92;11.50;;;-5.70;99.90;;;;;;4173254;28;20228;-77
2022/12/14 00:27:48;;;;;;;26.33;11.35;;;-5.70;99.90;;;;;;4177514;28;20301;-77
2022/12/14 00:29:50;;;;;;;26.27;11.65;;;-5.70;99.90;;;;;;4178291;28;20211;-76
2022/12/14 00:31:52;;;;;;;25.98;11.68;;;-5.70;99.90;;;;;;4177307;28;20203;-76
2022/12/14 00:33:54;;;;;;;24.55;11.43;;;-5.70;99.90;;;;;;4171170;28;20208;-77
2022/12/14 00:35:56;;;;;;;26.48;11.63;;;-5.70;99.90;;;;;;4174768;28;20222;-77
2022/12/14 00:37:58;;;;;;;23.90;11.05;;;-5.70;99.90;;;;;;4173237;28;20219;-77
2022/12/14 00:40:00;;;;;;;23.27;10.88;;;-5.70;99.90;;;;;;4169812;28;20197;-76
2022/12/14 00:42:02;;;;;;;27.05;11.63;;;-5.70;99.90;;;;;;4170128;28;20232;-77
2022/12/14 00:44:05;;;;;;;23.48;10.75;;;-5.70;99.90;;;;;;4172620;28;20204;-77
2022/12/14 00:46:08;;;;;;;26.98;11.30;;;-5.70;99.90;;;;;;4171543;28;20218;-78
2022/12/14 00:48:10;;;;;;;22.77;10.93;;;-5.70;99.90;;;;;;4171590;28;20289;-77
2022/12/14 00:50:12;;;;;;;27.40;11.27;;;-5.70;99.90;;;;;;4169673;28;20267;-76
2022/12/14 00:52:13;;;;;;;24.67;11.20;;;-5.70;99.90;;;;;;4165206;28;20296;-77
2022/12/14 00:54:16;;;;;;;24.13;11.07;;;-5.60;99.90;;;;;;4170945;28;20219;-77
2022/12/14 00:56:18;;;;;;;26.33;10.93;;;-5.70;99.90;;;;;;4169613;28;20306;-77
2022/12/14 00:58:21;;;;;;;27.38;11.55;;;-5.70;99.90;;;;;;4170607;28;20229;-77
2022/12/14 01:00:25;;;;;;;25.65;11.13;;;-5.60;99.90;;;;;;4172928;28;20236;-77
2022/12/14 01:02:29;;;;;;;23.85;10.50;;;-5.60;99.90;;;;;;4174513;28;20610;-77
2022/12/14 01:04:31;;;;;;;23.70;10.77;;;-5.60;99.90;;;;;;4173296;28;20301;-77
2022/12/14 01:06:33;;;;;;;25.02;10.73;;;-5.60;99.90;;;;;;4172136;28;20319;-77
2022/12/14 01:08:35;;;;;;;20.88;9.98;;;-5.60;99.90;;;;;;4171955;28;20215;-77
2022/12/14 01:10:39;;;;;;;23.63;10.80;;;-5.60;99.90;;;;;;4176790;28;20205;-77
2022/12/14 01:12:42;;;;;;;22.20;9.93;;;-5.60;99.90;;;;;;4172364;28;20241;-77
2022/12/14 01:14:45;;;;;;;23.35;11.43;;;-5.60;99.90;;;;;;4167554;28;20218;-77
2022/12/14 01:16:48;;;;;;;25.08;11.00;;;-5.60;99.90;;;;;;4171037;28;20230;-77
2022/12/14 01:18:50;;;;;;;21.10;10.45;;;-5.60;99.90;;;;;;4166876;28;20242;-78
2022/12/14 01:20:52;;;;;;;24.83;11.18;;;-5.60;99.90;;;;;;4170984;28;20253;-77
2022/12/14 01:22:54;;;;;;;23.75;10.55;;;-5.60;99.90;;;;;;4171291;28;20712;-77
2022/12/14 01:24:56;;;;;;;23.35;10.63;;;-5.60;99.90;;;;;;4177362;28;20209;-77
2022/12/14 01:26:58;;;;;;;24.15;11.50;;;-5.60;99.90;;;;;;4172952;28;20234;-77
2022/12/14 01:29:00;;;;;;;20.77;9.70;;;-5.60;99.90;;;;;;4169559;28;20208;-77
2022/12/14 01:31:08;;;;;;;25.77;10.70;;;-5.60;99.90;;;;;;4168194;28;20244;-77
2022/12/14 01:33:11;;;;;;;26.20;10.73;;;-5.60;99.90;;;;;;4175440;28;20303;-77
2022/12/14 01:35:13;;;;;;;24.48;10.27;;;-5.50;99.90;;;;;;4171961;28;20210;-77
2022/12/14 01:37:15;;;;;;;21.48;10.10;;;-5.50;99.90;;;;;;4173105;28;20304;-76
2022/12/14 01:39:17;;;;;;;22.20;10.98;;;-5.60;99.90;;;;;;4171309;28;20322;-76
2022/12/14 01:41:24;;;;;;;26.00;10.73;;;-5.60;99.90;;;;;;4176491;28;20303;-77
2022/12/14 01:43:44;;;;;;;25.02;10.88;;;-5.50;99.90;;;;;;4173564;28;20231;-77
2022/12/14 01:45:46;;;;;;;26.05;10.73;;;-5.50;99.90;;;;;;4176774;28;20239;-76
2022/12/14 01:47:51;;;;;;;20.92;10.15;;;-5.50;99.90;;;;;;4174049;28;20235;-78
2022/12/14 01:50:00;;;;;;;21.65;10.20;;;-5.50;99.90;;;;;;4173673;28;20214;-77
2022/12/14 01:52:09;;;;;;;26.38;11.10;;;-5.50;99.90;;;;;;4176815;28;20236;-77
2022/12/14 01:54:13;;;;;;;24.98;11.20;;;-5.50;99.90;;;;;;4176821;28;20212;-77
2022/12/14 01:56:16;;;;;;;25.42;10.35;;;-5.50;99.90;;;;;;4171700;28;20263;-77
2022/12/14 01:58:21;;;;;;;26.35;11.10;;;-5.50;99.90;;;;;;4179190;28;20252;-77
2022/12/14 02:00:23;;;;;;;26.55;10.25;;;-5.50;99.90;;;;;;4180251;28;20250;-77
2022/12/14 02:02:26;;;;;;;25.70;11.05;;;-5.50;99.90;;;;;;4179388;28;20209;-77
2022/12/14 02:04:28;;;;;;;22.23;10.23;;;-5.50;99.90;;;;;;4176781;28;20267;-77
2022/12/14 02:06:35;;;;;;;21.48;9.98;;;-5.50;99.90;;;;;;4176240;28;20723;-77
2022/12/14 02:08:38;;;;;;;22.92;10.40;;;-5.50;99.90;;;;;;4174451;28;20236;-76
2022/12/14 02:10:40;;;;;;;23.70;10.75;;;-5.50;99.90;;;;;;4172197;28;20220;-77
2022/12/14 02:12:47;;;;;;;25.92;10.40;;;-5.50;99.90;;;;;;4177771;28;20206;-77
2022/12/14 02:14:51;;;;;;;24.27;10.55;;;-5.50;99.90;;;;;;4176342;28;20237;-77
2022/12/14 02:16:55;;;;;;;22.02;9.52;;;-5.50;99.90;;;;;;4175457;28;20248;-78
2022/12/14 02:18:57;;;;;;;27.35;11.52;;;-5.60;99.90;;;;;;4175486;28;20226;-77
2022/12/14 02:21:21;;;;;;;23.48;10.40;;;-5.60;99.90;;;;;;4180555;28;20306;-77
2022/12/14 02:23:58;;;;;;;24.48;10.32;;;-5.60;99.90;;;;;;4178300;28;20215;-77
2022/12/14 02:26:49;;;;;;;25.30;11.15;;;-5.60;99.90;;;;;;4169431;28;20271;-77
2022/12/14 02:29:26;;;;;;;25.05;9.70;;;-5.60;99.90;;;;;;4170576;28;20214;-77
2022/12/14 02:31:36;;;;;;;25.50;10.73;;;-5.60;99.90;;;;;;4173805;28;20298;-77
2022/12/14 02:33:47;;;;;;;22.40;10.30;;;-5.60;99.90;;;;;;4177217;28;20216;-77
2022/12/14 02:35:57;;;;;;;21.73;10.07;;;-5.60;99.90;;;;;;4174731;28;20254;-76
2022/12/14 02:38:11;;;;;;;22.15;10.10;;;-5.60;99.90;;;;;;4171711;28;20621;-76
2022/12/14 02:40:23;;;;;;;27.15;11.40;;;-5.70;99.90;;;;;;4179017;28;20669;-77
2022/12/14 02:42:37;;;;;;;24.92;11.10;;;-5.70;99.90;;;;;;4171160;28;20238;-77
2022/12/14 02:44:49;;;;;;;22.60;9.65;;;-5.70;99.90;;;;;;4173771;28;20214;-77
2022/12/14 02:46:57;;;;;;;24.02;10.18;;;-5.70;99.90;;;;;;4173945;28;20305;-77
2022/12/14 02:49:03;;;;;;;20.33;10.13;;;-5.70;99.90;;;;;;4175650;28;20216;-77
2022/12/14 02:51:11;;;;;;;24.08;10.18;;;-5.70;99.90;;;;;;4174996;28;20246;-76
2022/12/14 02:53:20;;;;;;;20.17;9.45;;;-5.70;99.90;;;;;;4179393;28;20246;-77
2022/12/14 02:55:28;;;;;;;31.42;10.77;;;-5.70;99.90;;;;;;4178276;28;20236;-77
2022/12/14 02:57:35;;;;;;;23.25;10.55;;;-5.70;99.90;;;;;;4176275;28;20240;-77
2022/12/14 02:59:37;;;;;;;27.40;11.13;;;-5.70;99.90;;;;;;4173180;28;20231;-76
2022/12/14 03:01:42;;;;;;;22.90;11.05;;;-5.70;99.90;;;;;;4173397;28;20199;-77
2022/12/14 03:03:44;;;;;;;24.90;10.40;;;-5.70;99.90;;;;;;4170215;28;20212;-77
2022/12/14 03:05:56;;;;;;;21.10;10.10;;;-5.70;99.90;;;;;;4170355;28;20231;-77
2022/12/14 03:07:59;;;;;;;24.55;10.02;;;-5.70;99.90;;;;;;4175732;28;20211;-77
2022/12/14 03:10:05;;;;;;;22.63;10.13;;;-5.70;99.90;;;;;;4174199;28;20698;-77
2022/12/14 03:12:13;;;;;;;23.77;10.43;;;-5.70;99.90;;;;;;4172834;28;20211;-76
2022/12/14 03:14:20;;;;;;;23.42;10.25;;;-5.70;99.90;;;;;;4170018;28;20200;-76
2022/12/14 03:16:25;;;;;;;22.58;9.27;;;-5.70;99.90;;;;;;4173179;28;20708;-77
2022/12/14 03:18:33;;;;;;;20.40;8.70;;;-5.80;99.90;;;;;;4176100;28;20269;-77
2022/12/14 03:20:38;;;;;;;20.48;9.63;;;-5.80;99.90;;;;;;4167665;28;20233;-77
2022/12/14 03:22:45;;;;;;;22.73;9.60;;;-5.80;99.90;;;;;;4168526;28;20211;-77
2022/12/14 03:24:52;;;;;;;23.33;9.27;;;-5.80;99.90;;;;;;4167963;28;20217;-76
2022/12/14 03:27:01;;;;;;;22.60;9.88;;;-5.70;99.90;;;;;;4176883;28;20701;-77
2022/12/14 03:29:09;;;;;;;23.85;9.88;;;-5.80;99.90;;;;;;4172401;28;20203;-78
2022/12/14 03:31:16;;;;;;;24.35;9.98;;;-5.80;99.90;;;;;;4176135;28;20218;-77
2022/12/14 03:33:23;;;;;;;22.55;9.05;;;-5.80;99.90;;;;;;4175271;28;20990;-77
2022/12/14 03:35:32;;;;;;;21.35;9.20;;;-5.80;99.90;;;;;;4167564;28;20727;-77
2022/12/14 03:37:39;;;;;;;26.50;10.52;;;-5.90;99.90;;;;;;4169454;28;20248;-77
2022/12/14 03:39:43;;;;;;;24.63;9.90;;;-5.90;99.90;;;;;;4182726;28;20227;-77
2022/12/14 03:41:50;;;;;;;25.33;9.93;;;-5.90;99.90;;;;;;4167430;28;20240;-76
2022/12/14 03:44:14;;;;;;;23.95;9.50;;;-6.00;99.90;;;;;;4174328;28;20262;-77
2022/12/14 03:46:22;;;;;;;20.83;9.88;;;-5.90;99.90;;;;;;4178646;28;20225;-77
2022/12/14 03:48:33;;;;;;;22.48;9.93;;;-6.00;99.90;;;;;;4172106;28;20667;-77
2022/12/14 03:50:41;;;;;;;19.88;9.10;;;-6.00;99.90;;;;;;4169361;28;20228;-76
2022/12/14 03:52:52;;;;;;;25.80;10.27;;;-6.00;99.90;;;;;;4178897;28;20211;-77
2022/12/14 03:55:02;;;;;;;21.65;9.13;;;-6.00;99.90;;;;;;4176298;28;20366;-76
2022/12/14 03:57:08;;;;;;;21.70;9.43;;;-6.00;99.90;;;;;;4170059;28;20729;-76
2022/12/14 03:59:16;;;;;;;22.45;9.13;;;-6.10;99.90;;;;;;4171497;28;20259;-76
2022/12/14 04:01:28;;;;;;;20.88;9.23;;;-6.10;99.90;;;;;;4172896;28;20212;-77
2022/12/14 04:03:42;;;;;;;24.23;9.82;;;-6.10;99.90;;;;;;4167497;28;20211;-76
2022/12/14 04:05:52;;;;;;;22.80;9.35;;;-6.10;99.90;;;;;;4165139;28;20232;-76
2022/12/14 04:08:03;;;;;;;18.60;8.52;;;-6.10;99.90;;;;;;4170171;28;20269;-77
2022/12/14 04:19:46;;;;;;;26.23;8.88;;;-6.20;99.90;;;;;;4168900;28;20721;-76
2022/12/14 04:21:54;;;;;;;18.85;7.75;;;-6.20;99.90;;;;;;4169784;28;20203;-76
2022/12/14 04:26:29;;;;;;;22.85;8.95;;;-6.20;99.90;;;;;;4111244;28;20768;-76
2022/12/14 04:30:58;;;;;;;21.95;8.77;;;-6.20;99.90;;;;;;4176335;28;20652;-76
2022/12/14 04:33:45;;;;;;;26.70;9.98;;;-6.20;99.90;;;;;;4169063;28;20742;-76
2022/12/14 04:35:33;;;;;;;18.92;8.52;;;-6.20;99.90;;;;;;4167306;28;20591;-76
2022/12/14 04:37:40;;;;;;;22.60;8.88;;;-6.20;99.90;;;;;;4173782;28;20754;-76
2022/12/14 04:39:47;;;;;;;22.02;9.10;;;-6.30;99.90;;;;;;4188119;28;20634;-76
2022/12/14 04:41:53;;;;;;;21.27;8.68;;;-6.30;99.90;;;;;;4172701;28;20203;-77
2022/12/14 04:43:59;;;;;;;22.52;8.50;;;-6.30;99.90;;;;;;4173737;28;20676;-77
2022/12/14 04:46:07;;;;;;;20.98;8.35;;;-6.30;99.90;;;;;;4174816;28;20231;-77
2022/12/14 04:48:17;;;;;;;23.40;8.25;;;-6.30;99.90;;;;;;4171568;28;20236;-76
2022/12/14 04:50:26;;;;;;;23.60;9.40;;;-6.30;99.90;;;;;;4168964;28;20245;-76
2022/12/14 04:52:33;;;;;;;23.65;8.90;;;-6.30;99.90;;;;;;4185632;28;20201;-77
2022/12/14 04:54:41;;;;;;;18.70;8.38;;;-6.30;99.90;;;;;;4168696;28;20208;-76
2022/12/14 04:56:49;;;;;;;21.50;9.25;;;-6.30;99.90;;;;;;4170263;28;20227;-77
2022/12/14 04:58:51;;;;;;;22.17;9.52;;;-6.30;99.90;;;;;;4172668;28;20350;-76
2022/12/14 05:01:08;;;;;;;19.98;8.88;;;-6.30;99.90;;;;;;4170022;28;20211;-76
2022/12/14 05:03:21;;;;;;;23.00;9.93;;;-6.30;99.90;;;;;;4190903;28;20230;-76
2022/12/14 05:05:28;;;;;;;23.15;8.70;;;-6.30;99.90;;;;;;4178193;28;20853;-76
2022/12/14 05:07:46;;;;;;;26.90;9.60;;;-6.30;99.90;;;;;;4168491;28;20219;-77
2022/12/14 05:09:55;;;;;;;23.25;8.80;;;-6.30;99.90;;;;;;4170990;28;20211;-76
2022/12/14 05:12:04;;;;;;;24.45;9.63;;;-6.30;99.90;;;;;;4167748;28;20241;-76
2022/12/14 05:14:11;;;;;;;21.25;8.77;;;-6.30;99.90;;;;;;4172838;28;20224;-76
2022/12/14 05:16:17;;;;;;;25.88;9.73;;;-6.30;99.90;;;;;;4173701;28;20232;-76
2022/12/14 05:18:19;;;;;;;23.55;9.43;;;-6.30;99.90;;;;;;4176059;28;20643;-76
2022/12/14 05:20:23;;;;;;;25.17;10.20;;;-6.30;99.90;;;;;;4174697;28;20646;-76
2022/12/14 05:22:25;;;;;;;23.15;9.57;;;-6.20;99.90;;;;;;4168539;28;20207;-76
2022/12/14 05:24:27;;;;;;;25.48;10.32;;;-6.10;99.90;;;;;;4169650;28;20337;-77
2022/12/14 05:26:31;;;;;;;22.58;9.93;;;-6.20;99.90;;;;;;4169808;28;20230;-77
2022/12/14 05:28:33;;;;;;;26.00;9.85;;;-6.20;99.90;;;;;;4169014;28;20217;-76
2022/12/14 05:30:36;;;;;;;21.80;9.75;;;-6.20;99.90;;;;;;4170819;28;20664;-76
2022/12/14 05:32:38;;;;;;;23.17;9.50;;;-6.20;99.90;;;;;;4172279;28;20277;-77
2022/12/14 05:34:41;;;;;;;23.67;9.25;;;-6.40;99.90;;;;;;4188903;28;20592;-77
2022/12/14 05:36:43;;;;;;;25.85;10.05;;;-6.20;99.90;;;;;;4165493;28;20235;-77
2022/12/14 05:38:45;;;;;;;23.02;8.63;;;-6.30;99.90;;;;;;4173886;28;20247;-76
2022/12/14 05:40:47;;;;;;;26.13;9.88;;;-6.20;99.90;;;;;;4175819;28;20218;-76
2022/12/14 05:42:50;;;;;;;23.95;10.00;;;-6.30;99.90;;;;;;4168300;28;20227;-77
2022/12/14 05:44:52;;;;;;;22.15;9.65;;;-6.30;99.90;;;;;;4175257;28;20242;-76
2022/12/14 05:46:54;;;;;;;24.58;9.55;;;-6.30;99.90;;;;;;4174296;28;20231;-76
2022/12/14 05:48:56;;;;;;;26.35;10.00;;;-6.30;99.90;;;;;;4173443;28;20303;-76
2022/12/14 05:51:04;;;;;;;23.30;9.27;;;-6.30;99.90;;;;;;4169378;28;20211;-76
2022/12/14 05:53:07;;;;;;;24.45;10.05;;;-6.30;99.90;;;;;;4168698;28;20203;-77
2022/12/14 05:55:10;;;;;;;25.60;9.30;;;-6.30;99.90;;;;;;4168271;28;20639;-77
2022/12/14 05:57:12;;;;;;;23.75;9.45;;;-6.40;99.90;;;;;;4169099;28;20204;-77
2022/12/14 05:59:16;;;;;;;20.75;8.93;;;-6.40;99.90;;;;;;4172731;28;20271;-76
2022/12/14 06:01:24;;;;;;;22.77;9.45;;;-6.40;99.90;;;;;;4170094;28;20222;-76
2022/12/14 06:03:26;;;;;;;24.30;9.38;;;-6.10;99.90;;;;;;4171395;28;20221;-77
2022/12/14 06:05:28;;;;;;;22.02;9.13;;;-6.40;99.90;;;;;;4166252;28;20281;-76
2022/12/14 06:07:30;;;;;;;31.88;11.75;;;-6.40;99.90;;;;;;4170198;28;20216;-77
2022/12/14 06:09:32;;;;;;;30.17;10.48;;;-6.40;99.90;;;;;;4166906;28;20219;-76
2022/12/14 06:11:38;;;;;;;30.20;11.50;;;-6.40;99.90;;;;;;4171136;28;20215;-78
2022/12/14 06:13:41;;;;;;;27.95;10.30;;;-6.40;99.90;;;;;;4173679;28;20258;-76
2022/12/14 06:15:44;;;;;;;23.10;10.02;;;-6.30;99.90;;;;;;4166863;28;20232;-76
2022/12/14 06:17:47;;;;;;;25.55;10.02;;;-6.40;99.90;;;;;;4174727;28;20579;-76
2022/12/14 06:19:48;;;;;;;24.52;9.55;;;-6.40;99.90;;;;;;4169441;28;20265;-77
2022/12/14 06:21:50;;;;;;;27.02;10.40;;;-6.30;99.90;;;;;;4164418;28;20239;-76
2022/12/14 06:23:53;;;;;;;26.13;10.52;;;-6.30;99.90;;;;;;4167318;28;20685;-77
2022/12/14 06:25:56;;;;;;;24.60;10.85;;;-6.30;99.90;;;;;;4169070;28;20228;-77
2022/12/14 06:27:58;;;;;;;25.25;10.32;;;-6.30;99.90;;;;;;4170714;28;20214;-78
2022/12/14 06:30:00;;;;;;;23.38;9.82;;;-6.30;99.90;;;;;;4167263;28;20286;-78
2022/12/14 06:32:03;;;;;;;23.88;9.68;;;-6.30;99.90;;;;;;4173616;28;20814;-77
2022/12/14 06:34:15;;;;;;;26.98;9.88;;;-6.30;99.90;;;;;;4166178;28;20632;-78
2022/12/14 06:36:20;;;;;;;24.27;10.05;;;-6.00;99.90;;;;;;4172444;28;20227;-78
2022/12/14 06:38:22;;;;;;;26.15;9.63;;;-6.30;99.90;;;;;;4172633;28;20207;-78
2022/12/14 06:40:24;;;;;;;25.17;10.85;;;-6.30;99.90;;;;;;4175501;28;20754;-77
2022/12/14 06:42:26;;;;;;;22.23;9.70;;;-6.30;99.90;;;;;;4168867;28;20208;-77
2022/12/14 06:44:28;;;;;;;23.20;10.38;;;-6.30;99.90;;;;;;4170152;28;20199;-78
2022/12/14 06:46:30;;;;;;;29.27;10.38;;;-6.30;99.90;;;;;;4170059;28;20657;-78
2022/12/14 06:48:33;;;;;;;23.30;9.95;;;-6.30;99.90;;;;;;4169874;28;20242;-78
2022/12/14 06:50:35;;;;;;;22.17;9.07;;;-6.30;99.90;;;;;;4169864;28;20204;-79
2022/12/14 06:52:38;;;;;;;22.95;9.85;;;-6.30;99.90;;;;;;4179822;28;20218;-80
2022/12/14 06:54:40;;;;;;;25.42;10.20;;;-6.30;99.90;;;;;;4179790;28;20236;-77
2022/12/14 06:56:45;;;;;;;24.02;9.05;;;-6.40;99.90;;;;;;4175292;28;20230;-78
2022/12/14 06:58:47;;;;;;;23.08;9.25;;;-6.40;99.90;;;;;;4172169;28;20253;-78
2022/12/14 07:00:49;;;;;;;23.52;9.50;;;-6.40;99.90;;;;;;4167732;28;20290;-77
2022/12/14 07:02:51;;;;;;;20.98;9.55;;;-6.40;99.90;;;;;;4174125;28;20214;-78
2022/12/14 07:04:54;;;;;;;19.38;8.80;;;-6.40;99.90;;;;;;4169893;28;20869;-77
2022/12/14 07:06:56;;;;;;;22.60;9.77;;;-6.40;99.90;;;;;;4172375;28;20234;-77
2022/12/14 07:08:59;;;;;;;21.15;9.10;;;-6.40;99.90;;;;;;4174956;28;20218;-78
2022/12/14 07:11:01;;;;;;;27.08;9.63;;;-6.40;99.90;;;;;;4173880;28;20312;-78
2022/12/14 07:13:03;;;;;;;21.00;9.48;;;-6.40;99.90;;;;;;4174996;28;20237;-79
2022/12/14 07:15:07;;;;;;;19.60;9.23;;;-6.10;99.90;;;;;;4171345;28;20212;-78
2022/12/14 07:17:09;;;;;;;20.52;8.95;;;-6.40;99.90;;;;;;4175660;28;20303;-77
2022/12/14 07:19:11;;;;;;;23.17;8.98;;;-6.40;99.90;;;;;;4166623;28;20258;-78
2022/12/14 07:21:15;;;;;;;25.00;10.32;;;-6.40;99.90;;;;;;4170548;28;20252;-77
2022/12/14 07:23:17;;;;;;;21.92;9.50;;;-6.40;99.90;;;;;;4179729;28;20306;-77
2022/12/14 07:25:19;;;;;;;22.25;9.68;;;-6.40;99.90;;;;;;4171473;28;20215;-77
2022/12/14 07:27:22;;;;;;;21.83;10.05;;;-6.40;99.90;;;;;;4173964;28;20258;-77
2022/12/14 07:29:24;;;;;;;27.85;11.10;;;-6.40;99.90;;;;;;4172438;28;20211;-77
2022/12/14 07:31:28;;;;;;;21.65;9.30;;;-6.40;99.90;;;;;;4171367;28;20282;-77
2022/12/14 07:33:30;;;;;;;25.60;10.10;;;-6.40;99.90;;;;;;4171336;28;20207;-77
2022/12/14 07:35:31;;;;;;;25.80;10.48;;;-6.30;99.90;;;;;;4166516;28;20974;-77
2022/12/14 07:37:36;;;;;;;24.40;10.68;;;-6.40;99.90;;;;;;4172734;28;20227;-77
2022/12/14 07:39:38;;;;;;;22.02;9.57;;;-6.30;99.90;;;;;;4175248;28;20212;-77
2022/12/14 07:41:40;;;;;;;19.10;9.55;;;-6.30;99.90;;;;;;4174414;28;20371;-78
2022/12/14 07:43:42;;;;;;;26.63;10.10;;;-6.30;99.90;;;;;;4172220;28;20215;-77
2022/12/14 07:45:44;;;;;;;27.30;10.43;;;-6.30;99.90;;;;;;4174723;28;20229;-77
2022/12/14 07:47:46;;;;;;;19.15;9.25;;;-6.30;99.90;;;;;;4178318;28;20219;-78
2022/12/14 07:49:48;;;;;;;26.23;10.18;;;-6.20;99.90;;;;;;4175689;28;20209;-78
2022/12/14 07:51:51;;;;;;;26.77;9.73;;;-6.20;99.90;;;;;;4169480;28;20212;-77
2022/12/14 07:53:55;;;;;;;21.50;9.73;;;-6.20;99.90;;;;;;4170476;28;20207;-79
2022/12/14 07:56:03;;;;;;;23.48;10.00;;;-6.20;99.90;;;;;;4172045;28;20286;-78
2022/12/14 07:58:05;;;;;;;22.52;9.95;;;-6.10;99.90;;;;;;4169833;28;20288;-79
2022/12/14 08:00:08;;;;;;;24.83;9.85;;;-6.10;99.90;;;;;;4191746;28;20943;-79
2022/12/14 08:02:11;;;;;;;20.85;9.07;;;-6.10;99.90;;;;;;4169885;28;20208;-78
2022/12/14 08:04:15;;;;;;;20.60;9.07;;;-6.00;99.90;;;;;;4184560;28;20749;-78
2022/12/14 08:06:18;;;;;;;21.73;10.10;;;-6.00;99.90;;;;;;4170116;28;20224;-76
2022/12/14 08:08:20;;;;;;;25.73;10.13;;;-6.00;99.90;;;;;;4172896;28;20715;-77
2022/12/14 08:10:27;;;;;;;25.73;10.25;;;-6.00;99.90;;;;;;4173023;28;20203;-77
2022/12/14 08:12:29;;;;;;;22.00;9.95;;;-5.90;99.90;;;;;;4172417;28;20212;-77
2022/12/14 08:14:31;;;;;;;25.77;9.77;;;-5.90;99.90;;;;;;4173828;28;20632;-77
2022/12/14 08:16:33;;;;;;;23.40;9.55;;;-5.80;99.90;;;;;;4186465;28;20244;-77
2022/12/14 08:18:35;;;;;;;25.50;10.20;;;-5.80;99.90;;;;;;4178970;28;20202;-77
2022/12/14 08:20:37;;;;;;;24.30;10.13;;;-5.70;99.90;;;;;;4168980;28;20222;-77
2022/12/14 08:22:39;;;;;;;27.30;11.15;;;-5.70;99.90;;;;;;4172377;28;20212;-77
2022/12/14 08:24:41;;;;;;;20.55;9.93;;;-5.70;99.90;;;;;;4167038;28;20595;-77
2022/12/14 08:26:44;;;;;;;21.88;9.57;;;-5.70;99.90;;;;;;4173899;28;20229;-77
2022/12/14 08:28:47;;;;;;;25.85;10.18;;;-5.60;99.90;;;;;;4171570;28;20221;-78
2022/12/14 08:30:49;;;;;;;27.27;10.38;;;-5.60;99.90;;;;;;4169568;28;20208;-78
2022/12/14 08:32:51;;;;;;;25.52;10.93;;;-5.20;99.90;;;;;;4170873;28;20219;-77
2022/12/14 08:34:53;;;;;;;24.65;10.50;;;-5.50;99.90;;;;;;4168815;28;20206;-78
2022/12/14 08:36:55;;;;;;;23.88;10.38;;;-5.50;99.90;;;;;;4171409;28;20225;-77
2022/12/14 08:38:58;;;;;;;20.92;9.77;;;-5.40;99.90;;;;;;4175980;28;20198;-78
2022/12/14 08:41:03;;;;;;;22.50;9.90;;;-5.40;99.90;;;;;;4170141;28;20259;-77
2022/12/14 08:43:07;;;;;;;24.75;10.98;;;-5.40;99.90;;;;;;4173299;28;20205;-78
2022/12/14 08:45:10;;;;;;;24.50;11.18;;;-5.30;99.90;;;;;;4169405;28;21270;-77
2022/12/14 08:47:12;;;;;;;24.83;10.32;;;-5.30;99.90;;;;;;4174774;28;20198;-77
2022/12/14 08:49:14;;;;;;;24.02;10.52;;;-5.20;99.90;;;;;;4169338;28;20696;-77
2022/12/14 08:51:17;;;;;;;25.00;10.18;;;-5.20;99.90;;;;;;4167549;28;20205;-78
2022/12/14 08:53:19;;;;;;;23.98;10.05;;;-5.20;99.90;;;;;;4168067;28;20210;-77
2022/12/14 08:55:22;;;;;;;24.95;10.55;;;-5.10;99.90;;;;;;4170245;28;20720;-78
2022/12/14 08:57:24;;;;;;;22.85;10.38;;;-5.10;99.90;;;;;;4164085;28;20221;-77
2022/12/14 08:59:27;;;;;;;25.75;11.80;;;-5.10;99.90;;;;;;4167926;28;20249;-78
2022/12/14 09:01:30;;;;;;;30.48;11.32;;;-5.00;99.90;;;;;;4172154;28;20231;-77
2022/12/14 09:03:33;;;;;;;27.58;11.70;;;-5.00;99.90;;;;;;4167490;28;20297;-78
2022/12/14 09:05:35;;;;;;;27.00;11.30;;;-4.90;99.90;;;;;;4166873;28;20261;-77
2022/12/14 09:07:37;;;;;;;29.50;11.45;;;-4.80;99.90;;;;;;4171065;28;20215;-77
2022/12/14 09:09:39;;;;;;;27.02;11.32;;;-4.80;99.90;;;;;;4169444;28;20217;-77
2022/12/14 09:11:41;;;;;;;28.23;11.35;;;-4.70;99.90;;;;;;4174811;28;20245;-77
2022/12/14 09:13:43;;;;;;;29.20;12.13;;;-4.70;99.90;;;;;;4168551;28;20216;-77
2022/12/14 09:15:56;;;;;;;26.20;11.23;;;-4.60;99.90;;;;;;4171361;28;20230;-77
2022/12/14 09:17:58;;;;;;;27.20;12.13;;;-4.60;99.90;;;;;;4169086;28;20785;-78
2022/12/14 09:20:00;;;;;;;28.33;11.68;;;-4.50;99.90;;;;;;4166452;28;20203;-79
2022/12/14 09:22:02;;;;;;;31.38;11.98;;;-4.50;99.90;;;;;;4169336;28;20211;-77
2022/12/14 09:24:05;;;;;;;28.83;11.82;;;-4.40;99.90;;;;;;4170129;28;20217;-77
2022/12/14 09:26:10;;;;;;;25.73;11.68;;;-4.30;99.90;;;;;;4170881;28;20846;-77
2022/12/14 09:28:12;;;;;;;30.75;12.38;;;-4.30;99.90;;;;;;4169861;28;20912;-78
2022/12/14 09:30:14;;;;;;;26.73;12.27;;;-4.20;99.90;;;;;;4169587;28;20202;-77
2022/12/14 09:32:17;;;;;;;27.67;11.98;;;-4.20;99.90;;;;;;4176671;28;20314;-77
2022/12/14 09:34:19;;;;;;;28.83;12.13;;;-4.20;99.90;;;;;;4173747;28;20294;-77
2022/12/14 09:36:23;;;;;;;23.55;11.52;;;-4.10;99.90;;;;;;4174318;28;20241;-77
2022/12/14 09:38:25;;;;;;;24.40;11.43;;;-4.10;99.90;;;;;;4172115;28;20679;-77
2022/12/14 09:40:30;;;;;;;28.02;12.07;;;-4.00;99.90;;;;;;4173317;28;20317;-78
2022/12/14 09:42:55;;;;;;;26.40;11.15;;;-4.00;99.90;;;;;;4170029;28;20673;-79
2022/12/14 09:45:05;;;;;;;25.95;11.57;;;-3.90;99.90;;;;;;4169804;28;20665;-78
2022/12/14 09:47:13;;;;;;;25.40;11.50;;;-3.90;99.90;;;;;;4174167;28;20202;-78
2022/12/14 09:49:26;;;;;;;28.05;12.65;;;-3.80;99.90;;;;;;4173328;28;20202;-78
2022/12/14 09:51:33;;;;;;;26.02;12.20;;;-3.80;99.90;;;;;;4167422;28;20199;-79
2022/12/14 09:53:36;;;;;;;25.33;11.38;;;-3.70;99.90;;;;;;4175260;28;20664;-78
2022/12/14 09:55:43;;;;;;;26.98;11.07;;;-3.70;99.90;;;;;;4171880;28;20234;-78
2022/12/14 09:57:47;;;;;;;26.15;12.32;;;-3.70;99.90;;;;;;4172608;28;20250;-78
2022/12/14 09:59:49;;;;;;;26.15;11.60;;;-3.60;99.90;;;;;;4172100;28;20234;-78
2022/12/14 10:01:57;;;;;;;25.30;11.65;;;-3.60;99.90;;;;;;4195263;28;20217;-78
2022/12/14 10:04:10;;;;;;;25.38;11.65;;;-3.60;99.90;;;;;;4177853;28;20291;-77
2022/12/14 10:06:31;;;;;;;26.95;11.40;;;-3.50;99.90;;;;;;4186038;28;20256;-78
2022/12/14 10:08:39;;;;;;;27.42;11.48;;;-3.50;99.90;;;;;;4174224;28;20202;-78
2022/12/14 10:10:48;;;;;;;25.98;11.95;;;-3.40;99.90;;;;;;4186974;28;20348;-78
2022/12/14 10:13:00;;;;;;;23.67;11.10;;;-3.40;99.90;;;;;;4180875;28;20802;-77
2022/12/14 10:15:19;;;;;;;23.17;11.10;;;-3.40;99.90;;;;;;4185501;28;20274;-77
2022/12/14 10:17:32;;;;;;;23.52;11.32;;;-3.30;99.90;;;;;;4171894;28;20237;-77
2022/12/14 10:19:40;;;;;;;28.35;11.30;;;-2.70;99.90;;;;;;4179611;28;20283;-77
2022/12/14 10:21:48;;;;;;;23.58;10.95;;;-3.20;99.90;;;;;;4194804;28;20229;-77
2022/12/14 10:23:56;;;;;;;26.48;12.50;;;-3.20;99.90;;;;;;4192045;28;20206;-78
2022/12/14 10:26:06;;;;;;;24.58;11.40;;;-3.10;99.90;;;;;;4181399;28;20234;-77
2022/12/14 10:28:15;;;;;;;25.73;11.40;;;-3.10;99.90;;;;;;4185560;28;20260;-78
2022/12/14 10:30:21;;;;;;;25.08;11.45;;;-3.10;99.90;;;;;;4173198;28;20457;-76
2022/12/14 10:32:31;;;;;;;26.38;12.07;;;-3.00;99.90;;;;;;4170413;28;20211;-77
2022/12/14 10:34:34;;;;;;;26.13;12.73;;;-3.00;99.90;;;;;;4174345;28;20194;-77
2022/12/14 10:36:44;;;;;;;25.83;12.35;;;-3.00;99.90;;;;;;4174016;28;20533;-77
2022/12/14 10:38:57;;;;;;;27.67;12.95;;;-2.90;99.90;;;;;;4172524;28;20276;-78
2022/12/14 10:41:04;;;;;;;31.77;12.95;;;-2.90;99.90;;;;;;4175363;28;20277;-77
2022/12/14 10:43:21;;;;;;;28.48;12.95;;;-2.80;99.90;;;;;;4171261;28;20293;-78
2022/12/14 10:45:30;;;;;;;24.38;11.40;;;-2.80;99.90;;;;;;4179054;28;20614;-76
2022/12/14 10:47:37;;;;;;;22.83;11.10;;;-2.80;99.90;;;;;;4171708;28;20198;-79
2022/12/14 10:49:45;;;;;;;29.15;11.80;;;-2.70;99.90;;;;;;4179304;28;20878;-77
2022/12/14 10:51:52;;;;;;;22.93;10.47;;;-2.70;99.90;;;;;;4169365;28;20214;-77
2022/12/14 10:53:59;;;;;;;29.87;11.70;;;-2.50;99.90;;;;;;4170600;28;20522;-76